Hlavní strana
METAR-TAF:

METAR-TAF

Letiště :

Winston-Salem, Severní Karolína, Spojené státy americké

zeměpisná šířka: 36-08-00N, zeměpisná délka: 080-13-29W, výška: 295 m

Aktuální stav počasí

Zpráva byla vytvořena před 52 minutami, v 09:54 UTC
Severoseverozápadní vítr 15 kt s nárazy do 18 kt
Teplota 9°C
Vlhkost vzduchu 43%
Tlak 1006 hPa
Viditelnost: 16.1 km
Jasno

METAR: KINT 100954Z AUTO 34015G18KT 10SM CLR 09/M03 A2972 RMK AO2 SLP056 T00891028

Čas: 06:46 (10:46 UTC)

Předpověď počasí

Zpráva byla vytvořena před 5 hodinami a 26 minutami, v 05:20 UTC
Předpověď platná od 10 v 06 UTC do 11 v 06 UTC
Severozápadní vítr 13 kt s nárazy do 20 kt
Viditelnost: 10 km
Jasno
Od 10 v 1300 UTC
Severozápadní vítr 16 kt s nárazy do 26 kt
Viditelnost: 10 km
Skoro jasno ve výšce 5000 ft
Polojasno ve výšce 25000 ft
Od 11 v 0100 UTC
Západoseverozápadní vítr 7 kt
Viditelnost: 10 km
Jasno

TAF: KINT 100520Z 1006/1106 31013G20KT P6SM SKC FM101300 32016G26KT P6SM FEW050 SCT250 FM110100 29007KT P6SM SKC

Stav a předpovědi počasí z více než 4 000 letišť (zprávy METAR a TAF).

Červené a žluté tečky na mapě představují dostupné meteorologické stanice.

Když kurzor umístíte na tečku, zobrazí se název stanice.

Pak kliknutím zobrazíte stav a předpověď počasí.

Chcete-li změnit mapu, kliknutím na zelené tlačítko se znaménkem +mapu přiblížíte, kliknutím na zelené tlačítko se znaménkem – mapu oddálíte a kliknutím na zelené šipky přejdete na sousední mapy.


METAR-TAF: